createdAt,value
2023-05-22T00:01:26.512Z,21.22
2023-05-22T00:05:28.114Z,21.13
2023-05-22T00:09:29.712Z,21.06
2023-05-22T00:13:31.751Z,21.06
2023-05-22T00:17:34.110Z,21.01
2023-05-22T00:21:37.536Z,20.97
2023-05-22T00:25:40.001Z,20.93
2023-05-22T00:29:41.602Z,20.88
2023-05-22T00:33:43.244Z,20.85
2023-05-22T00:37:46.121Z,20.79
2023-05-22T00:41:47.732Z,20.76
2023-05-22T00:45:49.378Z,20.71
2023-05-22T00:49:50.959Z,20.66
2023-05-22T00:53:53.957Z,20.60
2023-05-22T00:57:56.161Z,20.58
2023-05-22T01:01:58.853Z,20.54
2023-05-22T01:06:01.195Z,20.54
2023-05-22T01:10:02.775Z,20.51
2023-05-22T01:14:13.208Z,20.51
2023-05-22T01:18:25.061Z,20.44
2023-05-22T01:22:49.937Z,20.38
2023-05-22T01:27:03.834Z,20.33
2023-05-22T01:31:08.207Z,20.26
2023-05-22T01:35:11.563Z,20.23
2023-05-22T01:39:14.979Z,20.25
2023-05-22T01:43:17.608Z,20.22
2023-05-22T01:47:20.030Z,20.15
2023-05-22T01:51:32.575Z,20.05
2023-05-22T01:55:42.885Z,20.02
2023-05-22T01:59:49.656Z,19.98
2023-05-22T02:03:56.871Z,19.95
2023-05-22T02:08:01.253Z,19.92
2023-05-22T02:12:03.619Z,19.87
2023-05-22T02:16:06.475Z,19.83
2023-05-22T02:20:15.472Z,19.79
2023-05-22T02:24:18.646Z,19.72
2023-05-22T02:28:20.793Z,19.65
2023-05-22T02:32:22.396Z,19.61
2023-05-22T02:36:26.242Z,19.55
2023-05-22T02:40:28.013Z,19.52
2023-05-22T02:44:29.658Z,19.47
2023-05-22T02:48:31.397Z,19.42
2023-05-22T02:52:33.078Z,19.39
2023-05-22T02:56:34.879Z,19.34
2023-05-22T03:00:39.642Z,19.34
2023-05-22T03:04:41.940Z,19.32
2023-05-22T03:08:44.481Z,19.31
2023-05-22T03:12:46.124Z,19.31
2023-05-22T03:16:47.889Z,19.31
2023-05-22T03:20:49.518Z,19.31
2023-05-22T03:24:51.123Z,19.25
2023-05-22T03:28:53.342Z,19.24
2023-05-22T03:32:55.204Z,19.17
2023-05-22T03:36:58.045Z,19.15
2023-05-22T03:41:00.063Z,19.13
2023-05-22T03:45:01.648Z,19.10
2023-05-22T03:49:03.660Z,19.07
2023-05-22T03:53:05.937Z,19.06
2023-05-22T03:57:07.587Z,19.06
2023-05-22T04:01:11.287Z,19.06
2023-05-22T04:05:13.156Z,19.01
2023-05-22T04:09:14.926Z,18.90
2023-05-22T04:13:17.187Z,18.91
2023-05-22T04:17:18.897Z,18.91
2023-05-22T04:21:20.484Z,18.91
2023-05-22T04:25:22.065Z,18.90
2023-05-22T04:29:24.359Z,18.93
2023-05-22T04:33:26.155Z,18.97
2023-05-22T04:37:28.748Z,19.02
2023-05-22T04:41:32.474Z,19.06
2023-05-22T04:45:35.506Z,19.01
2023-05-22T04:49:38.998Z,19.05
2023-05-22T04:53:41.136Z,19.06
2023-05-22T04:57:45.850Z,19.07
2023-05-22T05:01:47.878Z,19.12
2023-05-22T05:05:49.547Z,19.17
2023-05-22T05:09:51.484Z,19.23
2023-05-22T05:13:53.194Z,19.25
2023-05-22T05:17:55.442Z,19.28
2023-05-22T05:21:57.135Z,19.30
2023-05-22T05:25:59.998Z,19.35
2023-05-22T05:30:03.066Z,19.45
2023-05-22T05:34:17.161Z,19.47
2023-05-22T05:38:51.201Z,19.52
2023-05-22T05:42:53.016Z,19.58
2023-05-22T05:46:59.087Z,19.64
2023-05-22T05:51:02.644Z,19.70
2023-05-22T05:55:09.553Z,19.82
2023-05-22T05:59:11.330Z,19.94
2023-05-22T06:03:13.553Z,20.08
2023-05-22T06:07:24.320Z,20.20
2023-05-22T06:11:28.032Z,20.22
2023-05-22T06:15:31.459Z,20.26
2023-05-22T06:19:33.307Z,20.42
2023-05-22T06:23:35.017Z,20.58
2023-05-22T06:27:37.161Z,20.71
2023-05-22T06:31:41.215Z,20.75
2023-05-22T06:35:43.936Z,20.81
2023-05-22T06:39:46.533Z,20.87
2023-05-22T06:43:56.716Z,20.88
2023-05-22T06:48:03.882Z,20.98
2023-05-22T06:52:10.078Z,21.11
2023-05-22T06:56:12.481Z,21.15
2023-05-22T07:00:40.560Z,21.19
2023-05-22T07:04:53.483Z,21.27
2023-05-22T07:09:06.226Z,21.36
2023-05-22T07:13:08.132Z,21.42
2023-05-22T07:17:11.226Z,21.46
2023-05-22T07:21:17.430Z,21.59
2023-05-22T07:25:19.551Z,21.70
2023-05-22T07:29:23.173Z,21.68
2023-05-22T07:33:27.793Z,21.81
2023-05-22T07:37:31.682Z,21.93
2023-05-22T07:41:33.861Z,22.04
2023-05-22T07:45:35.893Z,22.09
2023-05-22T07:49:41.945Z,22.19
2023-05-22T07:53:44.548Z,22.33
2023-05-22T07:57:47.419Z,22.48
2023-05-22T08:01:58.279Z,22.60
2023-05-22T08:06:00.220Z,22.74
2023-05-22T08:10:13.377Z,22.84
2023-05-22T08:14:15.139Z,22.91
2023-05-22T08:18:16.795Z,23.01
2023-05-22T08:22:18.394Z,23.15
2023-05-22T08:26:20.474Z,23.25
2023-05-22T08:30:22.070Z,23.47
2023-05-22T08:34:24.647Z,23.68
2023-05-22T08:38:26.397Z,23.86
2023-05-22T08:42:27.970Z,24.12
2023-05-22T08:46:30.630Z,24.46
2023-05-22T08:50:32.680Z,24.75
2023-05-22T08:54:36.780Z,24.87
2023-05-22T08:58:38.467Z,24.80
2023-05-22T09:02:40.635Z,24.92
2023-05-22T09:06:42.968Z,24.99
2023-05-22T09:10:44.845Z,25.14
2023-05-22T09:14:46.434Z,24.94
2023-05-22T09:18:48.095Z,24.97
2023-05-22T09:22:49.761Z,25.04
2023-05-22T09:26:53.056Z,25.30
2023-05-22T09:30:55.858Z,25.44
2023-05-22T09:35:04.990Z,25.42
2023-05-22T09:39:07.518Z,25.63
2023-05-22T09:43:10.595Z,25.79
2023-05-22T09:47:12.436Z,25.86
2023-05-22T09:51:14.428Z,25.97
2023-05-22T09:55:17.074Z,25.83
2023-05-22T09:59:27.010Z,25.64
2023-05-22T10:03:31.019Z,25.53
2023-05-22T10:07:39.650Z,25.49
2023-05-22T10:11:41.628Z,25.54
2023-05-22T10:15:44.021Z,25.63
2023-05-22T10:19:47.196Z,25.71
2023-05-22T10:23:49.968Z,25.94
2023-05-22T10:27:55.817Z,25.90
2023-05-22T10:32:08.433Z,25.83
2023-05-22T10:36:37.424Z,26.03
2023-05-22T10:40:39.533Z,26.27
2023-05-22T10:44:41.659Z,26.34
2023-05-22T10:48:47.835Z,26.47
2023-05-22T10:53:25.554Z,26.65
2023-05-22T10:57:33.632Z,26.68
2023-05-22T11:01:38.066Z,26.83
2023-05-22T11:05:58.342Z,26.87
2023-05-22T11:10:00.465Z,26.96
2023-05-22T11:14:05.484Z,27.02
2023-05-22T11:18:07.301Z,26.88
2023-05-22T11:22:09.022Z,27.11
2023-05-22T11:26:26.321Z,27.11
2023-05-22T11:30:32.570Z,27.30
2023-05-22T11:34:34.580Z,27.58
2023-05-22T11:38:36.377Z,27.62
2023-05-22T11:42:38.417Z,27.72
2023-05-22T11:46:40.403Z,27.87
2023-05-22T11:50:43.945Z,28.09
2023-05-22T11:54:49.231Z,28.14
2023-05-22T11:58:51.982Z,28.25
2023-05-22T12:02:54.751Z,28.43
2023-05-22T12:06:56.794Z,28.57
2023-05-22T12:10:58.588Z,28.69
2023-05-22T12:15:00.411Z,28.76
2023-05-22T12:19:07.111Z,28.91
2023-05-22T12:23:28.010Z,29.15
2023-05-22T12:27:33.193Z,29.36
2023-05-22T12:31:39.184Z,29.39
2023-05-22T12:35:41.734Z,29.52
2023-05-22T12:39:53.707Z,29.64
2023-05-22T12:43:55.500Z,29.62
2023-05-22T12:47:57.113Z,29.89
2023-05-22T12:51:58.716Z,30.11
2023-05-22T12:56:00.820Z,30.25
2023-05-22T13:00:02.606Z,30.53
2023-05-22T13:04:04.288Z,30.66
2023-05-22T13:08:06.011Z,30.57
2023-05-22T13:12:07.923Z,30.67
2023-05-22T13:16:10.510Z,30.70
2023-05-22T13:20:13.417Z,30.54
2023-05-22T13:24:15.136Z,30.90
2023-05-22T13:28:16.762Z,30.90
2023-05-22T13:32:19.521Z,31.32
2023-05-22T13:36:21.286Z,31.45
2023-05-22T13:40:23.271Z,31.62
2023-05-22T13:44:25.728Z,31.84
2023-05-22T13:48:27.310Z,31.91
2023-05-22T13:52:28.942Z,31.59
2023-05-22T13:56:30.847Z,31.07
2023-05-22T14:00:32.437Z,30.64
2023-05-22T14:04:34.230Z,30.06
2023-05-22T14:08:36.081Z,29.55
2023-05-22T14:12:37.702Z,29.10
2023-05-22T14:16:39.444Z,28.64
2023-05-22T14:20:41.501Z,28.43
2023-05-22T14:24:43.182Z,28.18
2023-05-22T14:28:44.865Z,27.99
2023-05-22T14:32:46.927Z,27.98
2023-05-22T14:36:48.844Z,27.84
2023-05-22T14:40:51.312Z,27.76
2023-05-22T14:44:52.928Z,27.68
2023-05-22T14:48:54.670Z,27.48
2023-05-22T14:52:56.378Z,27.40
2023-05-22T14:56:58.172Z,27.39
2023-05-22T15:00:59.805Z,27.43
2023-05-22T15:05:01.574Z,27.28
2023-05-22T15:09:03.470Z,27.18
2023-05-22T15:13:05.159Z,27.08
2023-05-22T15:17:06.791Z,27.02
2023-05-22T15:21:08.449Z,26.79
2023-05-22T15:25:15.302Z,26.68
2023-05-22T15:29:18.048Z,26.47
2023-05-22T15:33:20.467Z,26.31
2023-05-22T15:37:22.140Z,25.96
2023-05-22T15:41:23.811Z,25.76
2023-05-22T15:45:25.632Z,25.93
2023-05-22T15:49:29.453Z,25.83
2023-05-22T15:53:32.969Z,25.75
2023-05-22T15:57:34.761Z,25.69
2023-05-22T16:01:36.457Z,25.53
2023-05-22T16:05:41.487Z,25.44
2023-05-22T16:09:43.388Z,25.34
2023-05-22T16:13:45.185Z,25.17
2023-05-22T16:17:46.857Z,25.01
2023-05-22T16:21:48.584Z,25.02
2023-05-22T16:25:50.942Z,25.05
2023-05-22T16:29:52.621Z,24.86
2023-05-22T16:33:54.320Z,24.89
2023-05-22T16:37:55.914Z,24.94
2023-05-22T16:41:57.584Z,24.84
2023-05-22T16:45:59.294Z,24.64
2023-05-22T16:50:01.116Z,24.56
2023-05-22T16:54:02.906Z,24.37
2023-05-22T16:58:04.522Z,24.34
2023-05-22T17:02:06.523Z,24.33
2023-05-22T17:06:08.879Z,24.30
2023-05-22T17:10:11.036Z,24.34
2023-05-22T17:14:12.863Z,24.42
2023-05-22T17:18:19.504Z,24.42
2023-05-22T17:22:21.237Z,24.49
2023-05-22T17:26:22.990Z,24.49
2023-05-22T17:30:24.677Z,24.49
2023-05-22T17:34:26.299Z,24.48
2023-05-22T17:38:27.879Z,24.44
2023-05-22T17:42:29.578Z,24.34
2023-05-22T17:46:31.203Z,24.37
2023-05-22T17:50:33.030Z,24.41
2023-05-22T17:54:35.605Z,24.33
2023-05-22T17:58:37.197Z,24.26
2023-05-22T18:02:39.040Z,24.31
2023-05-22T18:06:40.825Z,24.34
2023-05-22T18:10:42.672Z,24.37
2023-05-22T18:14:44.480Z,24.37
2023-05-22T18:18:47.264Z,24.33
2023-05-22T18:22:49.144Z,24.27
2023-05-22T18:26:50.712Z,24.19
2023-05-22T18:30:53.482Z,24.18
2023-05-22T18:34:55.163Z,24.11
2023-05-22T18:38:56.972Z,24.02
2023-05-22T18:42:58.579Z,23.92
2023-05-22T18:47:00.581Z,23.84
2023-05-22T18:51:02.253Z,23.71
2023-05-22T18:55:04.845Z,23.59
2023-05-22T18:59:06.625Z,23.52
2023-05-22T19:03:11.439Z,23.41
2023-05-22T19:07:13.243Z,23.29
2023-05-22T19:11:14.948Z,23.23
2023-05-22T19:15:16.659Z,23.21
2023-05-22T19:19:18.384Z,23.14
2023-05-22T19:23:20.031Z,23.06
2023-05-22T19:27:21.672Z,22.94
2023-05-22T19:31:23.417Z,22.94
2023-05-22T19:35:25.084Z,22.96
2023-05-22T19:39:26.731Z,22.82
2023-05-22T19:43:31.267Z,22.84
2023-05-22T19:47:33.047Z,22.79
2023-05-22T19:51:34.822Z,22.69
2023-05-22T19:55:36.687Z,22.63
2023-05-22T19:59:38.254Z,22.56
2023-05-22T20:03:40.111Z,22.52
2023-05-22T20:07:42.878Z,22.52
2023-05-22T20:11:44.532Z,22.45
2023-05-22T20:15:47.656Z,22.41
2023-05-22T20:19:49.473Z,22.33
2023-05-22T20:23:51.410Z,22.33
2023-05-22T20:27:53.070Z,22.29
2023-05-22T20:31:55.906Z,22.23
2023-05-22T20:35:58.562Z,22.14
2023-05-22T20:40:09.278Z,22.11
2023-05-22T20:44:10.973Z,22.06
2023-05-22T20:48:13.390Z,22.06
2023-05-22T20:52:16.021Z,22.01
2023-05-22T20:56:17.725Z,22.02
2023-05-22T21:00:19.510Z,22.02
2023-05-22T21:04:21.173Z,22.01
2023-05-22T21:08:22.914Z,22.02
2023-05-22T21:12:24.554Z,21.96
2023-05-22T21:16:26.383Z,21.90
2023-05-22T21:20:28.176Z,21.79
2023-05-22T21:24:31.952Z,21.68
2023-05-22T21:28:33.562Z,21.58
2023-05-22T21:32:35.430Z,21.49
2023-05-22T21:36:37.014Z,21.38
2023-05-22T21:40:40.520Z,21.30
2023-05-22T21:44:42.413Z,21.21
2023-05-22T21:48:44.133Z,21.09
2023-05-22T21:52:45.733Z,20.96
2023-05-22T21:56:47.303Z,20.88
2023-05-22T22:00:48.947Z,20.87
2023-05-22T22:04:50.534Z,20.82
2023-05-22T22:08:53.271Z,20.79
2023-05-22T22:12:54.955Z,20.75
2023-05-22T22:16:56.841Z,20.72
2023-05-22T22:20:58.597Z,20.76
2023-05-22T22:25:00.456Z,20.71
2023-05-22T22:29:02.124Z,20.66
2023-05-22T22:33:03.868Z,20.66
2023-05-22T22:37:06.839Z,20.61
2023-05-22T22:41:09.634Z,20.58
2023-05-22T22:45:11.414Z,20.57
2023-05-22T22:49:12.998Z,20.56
2023-05-22T22:53:14.576Z,20.54
2023-05-22T22:57:16.320Z,20.48
2023-05-22T23:01:17.956Z,20.38
2023-05-22T23:05:20.466Z,20.37
2023-05-22T23:09:22.328Z,20.33
2023-05-22T23:13:23.987Z,20.30
2023-05-22T23:17:25.637Z,20.25
2023-05-22T23:21:27.214Z,20.26
2023-05-22T23:25:28.757Z,20.25
2023-05-22T23:29:30.396Z,20.22
2023-05-22T23:33:32.016Z,20.22
2023-05-22T23:37:33.628Z,20.20
2023-05-22T23:41:35.520Z,20.19
2023-05-22T23:45:37.141Z,20.16
2023-05-22T23:49:38.780Z,20.15
2023-05-22T23:53:41.768Z,20.12
2023-05-22T23:57:43.450Z,20.08
